Time;durP1;ratioP1;P1;durP2;ratioP2;P2;SDS_P1;SDS_P2;PMS_P1;PMS_P2;Temp;Humidity;BMP_temperature;BMP_pressure;BME280_temperature;BME280_humidity;BME280_pressure;Samples;Min_cycle;Max_cycle;Signal;HPM_P1;HPM_P2
2022/06/15 00:02:34;;;;;;;;;;;;;;;14.79;49.88867;102113.9;;;;-80
2022/06/15 00:07:27;;;;;;;;;;;;;;;14.73;49.82422;102116;;;;-83
2022/06/15 00:12:28;;;;;;;;;;;;;;;14.62;49.94727;102110.2;;;;-84
2022/06/15 00:17:27;;;;;;;;;;;;;;;14.6;50.18066;102107;;;;-85
2022/06/15 00:22:27;;;;;;;;;;;;;;;14.51;50.19531;102110.7;;;;-85
2022/06/15 00:26:04;;;;;;;5.1;2.3;;;;;;;;;;;;;-85
2022/06/15 00:27:32;;;;;;;;;;;;;;;14.45;50.12012;102110.3;;;;-83
2022/06/15 00:32:29;;;;;;;;;;;;;;;14.42;49.98145;102108.3;;;;-84
2022/06/15 00:37:32;;;;;;;;;;;;;;;14.39;50.06738;102113.4;;;;-83
2022/06/15 00:42:34;;;;;;;;;;;;;;;14.37;49.81738;102113.3;;;;-83
2022/06/15 00:47:42;;;;;;;;;;;;;;;14.37;49.98633;102113;;;;-82
2022/06/15 00:52:32;;;;;;;;;;;;;;;14.37;49.92969;102110.3;;;;-82
2022/06/15 00:56:02;;;;;;;4.9;2;;;;;;;;;;;;;-82
2022/06/15 00:57:27;;;;;;;;;;;;;;;14.35;49.87109;102105.5;;;;-86
2022/06/15 01:02:27;;;;;;;;;;;;;;;14.32;49.8457;102106.9;;;;-84
2022/06/15 01:07:48;;;;;;;;;;;;;;;14.31;50.01367;102105.4;;;;-80
2022/06/15 01:12:37;;;;;;;;;;;;;;;14.27;49.69336;102098.2;;;;-82
2022/06/15 01:17:35;;;;;;;;;;;;;;;14.26;49.72559;102095.4;;;;-81
2022/06/15 01:22:35;;;;;;;;;;;;;;;14.23;49.71191;102099.5;;;;-82
2022/06/15 01:26:07;;;;;;;4.1;1.8;;;;;;;;;;;;;-81
2022/06/15 01:27:45;;;;;;;;;;;;;;;14.21;49.75488;102094.6;;;;-82
2022/06/15 01:32:32;;;;;;;;;;;;;;;14.16;49.96289;102093.9;;;;-81
2022/06/15 01:37:29;;;;;;;;;;;;;;;14.08;50.01074;102087;;;;-81
2022/06/15 01:42:31;;;;;;;;;;;;;;;14.03;50.20703;102083.9;;;;-81
2022/06/15 01:47:35;;;;;;;;;;;;;;;13.95;50.35449;102082;;;;-83
2022/06/15 01:52:29;;;;;;;;;;;;;;;13.88;50.45996;102073.6;;;;-81
2022/06/15 01:56:06;;;;;;;3.4;1.8;;;;;;;;;;;;;-81
2022/06/15 01:57:27;;;;;;;;;;;;;;;13.78;50.44824;102072.4;;;;-83
2022/06/15 02:02:31;;;;;;;;;;;;;;;13.71;50.54102;102067.8;;;;-79
2022/06/15 02:07:32;;;;;;;;;;;;;;;13.67;50.68359;102065.1;;;;-82
2022/06/15 02:12:31;;;;;;;;;;;;;;;13.62;50.50781;102061.4;;;;-81
2022/06/15 02:17:29;;;;;;;;;;;;;;;13.59;50.52734;102058;;;;-80
2022/06/15 02:22:29;;;;;;;;;;;;;;;13.56;50.51172;102051.3;;;;-83
2022/06/15 02:26:04;;;;;;;3.2;1.4;;;;;;;;;;;;;-82
2022/06/15 02:27:30;;;;;;;;;;;;;;;13.53;50.39746;102048.1;;;;-81
2022/06/15 02:32:27;;;;;;;;;;;;;;;13.48;50.52637;102045.1;;;;-82
2022/06/15 02:37:26;;;;;;;;;;;;;;;13.42;50.6084;102042.1;;;;-81
2022/06/15 02:42:29;;;;;;;;;;;;;;;13.38;50.51367;102038.7;;;;-79
2022/06/15 02:47:30;;;;;;;;;;;;;;;13.34;50.54297;102038.5;;;;-82
2022/06/15 02:52:29;;;;;;;;;;;;;;;13.27;50.56934;102042.8;;;;-80
2022/06/15 02:56:05;;;;;;;3.5;1.5;;;;;;;;;;;;;-82
2022/06/15 02:57:28;;;;;;;;;;;;;;;13.22;50.45117;102041.3;;;;-80
2022/06/15 03:02:27;;;;;;;;;;;;;;;13.15;50.76855;102036;;;;-81
2022/06/15 03:07:26;;;;;;;;;;;;;;;13.09;50.68359;102037.2;;;;-80
2022/06/15 03:12:26;;;;;;;;;;;;;;;13.03;50.77734;102039;;;;-80
2022/06/15 03:17:26;;;;;;;;;;;;;;;12.98;50.86133;102043.5;;;;-80
2022/06/15 03:22:26;;;;;;;;;;;;;;;12.95;50.82324;102046.2;;;;-81
2022/06/15 03:26:07;;;;;;;2.3;1.4;;;;;;;;;;;;;-81
2022/06/15 03:27:26;;;;;;;;;;;;;;;12.88;50.86035;102045.1;;;;-81
2022/06/15 03:32:26;;;;;;;;;;;;;;;12.83;50.87695;102046.8;;;;-80
2022/06/15 03:37:26;;;;;;;;;;;;;;;12.76;50.9707;102045.5;;;;-82
2022/06/15 03:42:27;;;;;;;;;;;;;;;12.72;50.97656;102047.4;;;;-79
2022/06/15 03:47:26;;;;;;;;;;;;;;;12.69;51.04102;102048.6;;;;-81
2022/06/15 03:52:28;;;;;;;;;;;;;;;12.62;51.07813;102044.8;;;;-80
2022/06/15 03:56:08;;;;;;;4.6;1.4;;;;;;;;;;;;;-81
2022/06/15 03:57:28;;;;;;;;;;;;;;;12.6;51.06348;102043.2;;;;-80
2022/06/15 04:02:26;;;;;;;;;;;;;;;12.61;51.14355;102041.9;;;;-80
2022/06/15 04:12:26;;;;;;;;;;;;;;;12.6;51.00781;102039.4;;;;-80
2022/06/15 04:17:27;;;;;;;;;;;;;;;12.61;50.80762;102044;;;;-82
2022/06/15 04:22:26;;;;;;;;;;;;;;;12.62;50.77539;102043.3;;;;-79
2022/06/15 04:26:09;;;;;;;2.5;1.4;;;;;;;;;;;;;-82
2022/06/15 04:27:26;;;;;;;;;;;;;;;12.65;50.73242;102041.6;;;;-81
2022/06/15 04:32:26;;;;;;;;;;;;;;;12.66;50.66602;102035.2;;;;-81
2022/06/15 04:37:26;;;;;;;;;;;;;;;12.71;50.66113;102038.4;;;;-81
2022/06/15 04:42:26;;;;;;;;;;;;;;;12.78;50.5127;102040.9;;;;-83
2022/06/15 04:47:26;;;;;;;;;;;;;;;12.84;50.4082;102039;;;;-82
2022/06/15 04:52:27;;;;;;;;;;;;;;;12.93;50.37305;102046.4;;;;-82
2022/06/15 04:56:10;;;;;;;3.7;1.7;;;;;;;;;;;;;-81
2022/06/15 04:57:26;;;;;;;;;;;;;;;13;50.4707;102051.5;;;;-80
2022/06/15 05:02:27;;;;;;;;;;;;;;;13.08;50.54688;102051.1;;;;-80
2022/06/15 05:07:26;;;;;;;;;;;;;;;13.17;50.95117;102046.8;;;;-81
2022/06/15 05:12:26;;;;;;;;;;;;;;;13.28;52.73828;102052.7;;;;-82
2022/06/15 05:17:27;;;;;;;;;;;;;;;13.41;52.37109;102054;;;;-82
2022/06/15 05:22:32;;;;;;;;;;;;;;;13.72;51.96973;102054.1;;;;-82
2022/06/15 05:26:24;;;;;;;3.4;1.8;;;;;;;;;;;;;-83
2022/06/15 05:27:26;;;;;;;;;;;;;;;14.29;51.35156;102052.2;;;;-81
2022/06/15 05:32:35;;;;;;;;;;;;;;;15.14;50.26563;102050.2;;;;-82
2022/06/15 05:37:26;;;;;;;;;;;;;;;16.03;48.41211;102053;;;;-81
2022/06/15 05:42:28;;;;;;;;;;;;;;;16.88;47.08789;102050.8;;;;-81
2022/06/15 05:47:27;;;;;;;;;;;;;;;17.66;46.06934;102053;;;;-82
2022/06/15 05:52:26;;;;;;;;;;;;;;;18.32;45.125;102052.1;;;;-82
2022/06/15 05:56:13;;;;;;;4.2;1.8;;;;;;;;;;;;;-82
2022/06/15 05:57:27;;;;;;;;;;;;;;;18.92;44.22949;102054.4;;;;-81
2022/06/15 06:02:27;;;;;;;;;;;;;;;19.54;43.49219;102048.6;;;;-83
2022/06/15 06:07:27;;;;;;;;;;;;;;;20.11;42.98633;102054.5;;;;-82
2022/06/15 06:12:27;;;;;;;;;;;;;;;20.57;42.55078;102047.7;;;;-82
2022/06/15 06:17:28;;;;;;;;;;;;;;;21;42.09766;102047;;;;-84
2022/06/15 06:22:26;;;;;;;;;;;;;;;21.49;41.73242;102050.7;;;;-82
2022/06/15 06:26:19;;;;;;;3.1;1.6;;;;;;;;;;;;;-80
2022/06/15 06:27:26;;;;;;;;;;;;;;;22.01;41.17188;102051.5;;;;-82
2022/06/15 06:32:26;;;;;;;;;;;;;;;22.55;40.54297;102061.4;;;;-82
2022/06/15 06:37:27;;;;;;;;;;;;;;;23.02;39.92871;102063.7;;;;-82
2022/06/15 06:42:27;;;;;;;;;;;;;;;23.41;39.72168;102058;;;;-82
2022/06/15 06:47:26;;;;;;;;;;;;;;;23.78;39.41895;102067.4;;;;-82
2022/06/15 06:52:26;;;;;;;;;;;;;;;24.14;39.23145;102069.1;;;;-81
2022/06/15 06:56:18;;;;;;;5.6;1.7;;;;;;;;;;;;;-83
2022/06/15 06:57:28;;;;;;;;;;;;;;;24.42;39.04883;102073.5;;;;-83
2022/06/15 07:02:26;;;;;;;;;;;;;;;24.73;38.80859;102071;;;;-82
2022/06/15 07:07:26;;;;;;;;;;;;;;;25.09;38.36523;102078.3;;;;-81
2022/06/15 07:12:26;;;;;;;;;;;;;;;25.34;38.39844;102086.9;;;;-82
2022/06/15 07:17:26;;;;;;;;;;;;;;;25.64;38.00586;102090.5;;;;-83
2022/06/15 07:22:27;;;;;;;;;;;;;;;25.91;37.73926;102089.1;;;;-82
2022/06/15 07:26:25;;;;;;;4.7;1.6;;;;;;;;;;;;;-83
2022/06/15 07:27:26;;;;;;;;;;;;;;;26.17;37.48242;102091.2;;;;-81
2022/06/15 07:32:26;;;;;;;;;;;;;;;26.43;37.12012;102097.6;;;;-83
2022/06/15 07:37:26;;;;;;;;;;;;;;;26.59;36.93652;102097.4;;;;-83
2022/06/15 07:42:26;;;;;;;;;;;;;;;26.86;36.55078;102104.2;;;;-82
2022/06/15 07:52:27;;;;;;;;;;;;;;;27.09;36.43066;102099.3;;;;-83
2022/06/15 07:56:26;;;;;;;4;1.8;;;;;;;;;;;;;-82
2022/06/15 07:57:27;;;;;;;;;;;;;;;27.19;36.33398;102094.9;;;;-84
2022/06/15 08:02:30;;;;;;;;;;;;;;;27.38;36.29004;102092.5;;;;-82
2022/06/15 08:07:26;;;;;;;;;;;;;;;27.54;36.0127;102093;;;;-81
2022/06/15 08:12:28;;;;;;;;;;;;;;;27.62;35.94922;102093.8;;;;-83
2022/06/15 08:17:28;;;;;;;;;;;;;;;27.75;36.01758;102099.7;;;;-82
2022/06/15 08:22:27;;;;;;;;;;;;;;;27.94;35.89355;102106.1;;;;-83
2022/06/15 08:26:32;;;;;;;3.8;1.7;;;;;;;;;;;;;-82
2022/06/15 08:27:26;;;;;;;;;;;;;;;28.07;35.84473;102108.5;;;;-80
2022/06/15 08:32:26;;;;;;;;;;;;;;;28.2;35.70313;102096.8;;;;-83
2022/06/15 08:37:26;;;;;;;;;;;;;;;28.39;35.56641;102099.2;;;;-83
2022/06/15 08:42:34;;;;;;;;;;;;;;;28.56;35.41699;102098;;;;-82
2022/06/15 08:47:37;;;;;;;;;;;;;;;28.74;35.23145;102091.7;;;;-82
2022/06/15 08:52:33;;;;;;;;;;;;;;;28.87;35.03125;102092.8;;;;-82
2022/06/15 08:56:40;;;;;;;4.1;1.7;;;;;;;;;;;;;-83
2022/06/15 08:57:36;;;;;;;;;;;;;;;29.03;34.74023;102093.8;;;;-83
2022/06/15 09:02:40;;;;;;;;;;;;;;;29.22;34.67285;102089.6;;;;-83
2022/06/15 09:07:36;;;;;;;;;;;;;;;29.42;34.38281;102087.5;;;;-82
2022/06/15 09:17:28;;;;;;;;;;;;;;;29.69;33.73633;102091.1;;;;-84
2022/06/15 09:22:25;;;;;;;;;;;;;;;29.78;33.87207;102080.1;;;;-84
2022/06/15 09:26:46;;;;;;;4;1.6;;;;;;;;;;;;;-83
2022/06/15 09:27:30;;;;;;;;;;;;;;;29.99;33.34766;102080.7;;;;-81
2022/06/15 09:32:32;;;;;;;;;;;;;;;30.18;32.97559;102074.2;;;;-83
2022/06/15 09:37:28;;;;;;;;;;;;;;;30.41;32.75684;102078.9;;;;-82
2022/06/15 09:42:31;;;;;;;;;;;;;;;30.56;31.96973;102071.4;;;;-82
2022/06/15 09:47:38;;;;;;;;;;;;;;;30.68;31.88477;102078.1;;;;-84
2022/06/15 09:52:33;;;;;;;;;;;;;;;30.75;31.5127;102073;;;;-84
2022/06/15 09:56:44;;;;;;;4.3;1.4;;;;;;;;;;;;;-84
2022/06/15 09:57:26;;;;;;;;;;;;;;;30.85;31.73145;102077.5;;;;-77
2022/06/15 10:02:29;;;;;;;;;;;;;;;30.96;31.41016;102068.7;;;;-77
2022/06/15 10:07:30;;;;;;;;;;;;;;;31.09;30.67773;102074.5;;;;-76
2022/06/15 10:13:02;;;;;;;;;;;;;;;31.24;30.69922;102074.2;;;;-77
2022/06/15 10:13:36;;;;;;;;;;;;;;;31.52;30.37695;102076;;;;-78
2022/06/15 10:17:50;;;;;;;;;;;;;;;31.44;30.80762;102075.4;;;;-76
2022/06/15 10:22:48;;;;;;;;;;;;;;;31.55;30.33301;102089.5;;;;-77
2022/06/15 10:26:49;;;;;;;5.6;1.2;;;;;;;;;;;;;-76
2022/06/15 10:27:48;;;;;;;;;;;;;;;31.73;30.17969;102076.9;;;;-77
2022/06/15 10:32:59;;;;;;;;;;;;;;;31.93;30.27539;102077.1;;;;-76
2022/06/15 10:37:50;;;;;;;;;;;;;;;32.11;29.66211;102086.3;;;;-75
2022/06/15 10:42:50;;;;;;;;;;;;;;;32.21;29.94043;102073.3;;;;-76
2022/06/15 10:47:59;;;;;;;;;;;;;;;32.39;29.89355;102075.6;;;;-75
2022/06/15 10:52:53;;;;;;;;;;;;;;;32.58;29.75195;102086.2;;;;-77
2022/06/15 11:02:48;;;;;;;;;;;;;;;32.93;29.04199;102079;;;;-77
2022/06/15 11:07:49;;;;;;;;;;;;;;;33.09;29.32422;102070.8;;;;-79
2022/06/15 11:12:54;;;;;;;;;;;;;;;33.21;28.41016;102070.7;;;;-78
2022/06/15 11:22:50;;;;;;;;;;;;;;;33.54;28.84473;102067.2;;;;-77
2022/06/15 11:27:03;;;;;;;3.3;1.3;;;;;;;;;;;;;-78
2022/06/15 11:27:51;;;;;;;;;;;;;;;33.55;29.12891;102066.2;;;;-78
2022/06/15 11:32:55;;;;;;;;;;;;;;;33.66;28.9707;102060.6;;;;-77
2022/06/15 11:37:51;;;;;;;;;;;;;;;33.75;28.45605;102056.9;;;;-78
2022/06/15 11:42:53;;;;;;;;;;;;;;;33.83;27.71387;102051;;;;-78
2022/06/15 11:47:55;;;;;;;;;;;;;;;33.96;28.2793;102045.7;;;;-77
2022/06/15 11:52:54;;;;;;;;;;;;;;;34.07;28.42773;102041.9;;;;-77
2022/06/15 11:57:10;;;;;;;5.5;1.5;;;;;;;;;;;;;-77
2022/06/15 11:57:53;;;;;;;;;;;;;;;34.04;28.35449;102036.1;;;;-76
2022/06/15 12:02:59;;;;;;;;;;;;;;;34.09;29.43555;102040.1;;;;-77
2022/06/15 12:07:56;;;;;;;;;;;;;;;34.08;28.65332;102050.4;;;;-78
2022/06/15 12:12:53;;;;;;;;;;;;;;;34.1;29.12891;102055;;;;-77
2022/06/15 12:17:52;;;;;;;;;;;;;;;34.15;28.93066;102055.1;;;;-77
2022/06/15 12:22:51;;;;;;;;;;;;;;;34.19;28.85059;102037.6;;;;-77
2022/06/15 12:27:11;;;;;;;3.7;1.2;;;;;;;;;;;;;-78
2022/06/15 12:27:52;;;;;;;;;;;;;;;34.31;28.26465;102031.4;;;;-77
2022/06/15 12:32:53;;;;;;;;;;;;;;;34.43;28.46289;102034.5;;;;-77
2022/06/15 12:37:53;;;;;;;;;;;;;;;34.53;28.36133;102028.5;;;;-78
2022/06/15 12:42:52;;;;;;;;;;;;;;;34.62;27.50098;102025;;;;-77
2022/06/15 12:47:51;;;;;;;;;;;;;;;34.71;28.00488;102025.3;;;;-76
2022/06/15 12:52:53;;;;;;;;;;;;;;;34.76;28.20996;102026.9;;;;-78
2022/06/15 12:57:19;;;;;;;4.3;1.3;;;;;;;;;;;;;-78
2022/06/15 12:57:55;;;;;;;;;;;;;;;34.86;27.83691;102024;;;;-79
2022/06/15 13:02:58;;;;;;;;;;;;;;;34.95;27.03418;102022.5;;;;-76
2022/06/15 13:07:58;;;;;;;;;;;;;;;35.1;26.65137;102028.7;;;;-79
2022/06/15 13:12:49;;;;;;;;;;;;;;;35.2;26.32422;102040.4;;;;-74
2022/06/15 13:18:12;;;;;;;;;;;;;;;35.3;26.15137;102037.8;;;;-77
2022/06/15 13:22:48;;;;;;;;;;;;;;;35.36;26.32129;102037.8;;;;-77
2022/06/15 13:27:26;;;;;;;2.6;1.2;;;;;;;;;;;;;-75
2022/06/15 13:27:50;;;;;;;;;;;;;;;35.43;26.39648;102032.4;;;;-76
2022/06/15 13:32:59;;;;;;;;;;;;;;;35.53;25.97363;102030.4;;;;-77
2022/06/15 13:37:59;;;;;;;;;;;;;;;35.63;25.95703;102036.8;;;;-77
2022/06/15 13:43:00;;;;;;;;;;;;;;;35.76;26.4873;102039.2;;;;-76
2022/06/15 13:47:52;;;;;;;;;;;;;;;35.86;25.75586;102042;;;;-76
2022/06/15 13:52:51;;;;;;;;;;;;;;;35.88;25.56641;102042;;;;-77
2022/06/15 13:57:35;;;;;;;3;1.3;;;;;;;;;;;;;-78
2022/06/15 13:58:01;;;;;;;;;;;;;;;35.86;25.70801;102038.5;;;;-76
2022/06/15 14:02:58;;;;;;;;;;;;;;;35.84;25.58691;102032.1;;;;-77
2022/06/15 14:07:55;;;;;;;;;;;;;;;35.8;25.76367;102029.8;;;;-79
2022/06/15 14:13:01;;;;;;;;;;;;;;;35.74;26.05859;102028.8;;;;-76
2022/06/15 14:18:08;;;;;;;;;;;;;;;35.66;26.18457;102016.4;;;;-77
2022/06/15 14:22:55;;;;;;;;;;;;;;;35.57;25.66797;102016.4;;;;-76
2022/06/15 14:27:34;;;;;;;2.7;1.2;;;;;;;;;;;;;-77
2022/06/15 14:27:53;;;;;;;;;;;;;;;35.5;25.6748;102014.8;;;;-78
2022/06/15 14:32:48;;;;;;;;;;;;;;;35.42;25.2666;102017.1;;;;-77
2022/06/15 14:37:54;;;;;;;;;;;;;;;35.37;26.21582;102007.9;;;;-78
2022/06/15 14:42:59;;;;;;;;;;;;;;;35.39;25.57422;102010.6;;;;-77
2022/06/15 14:47:53;;;;;;;;;;;;;;;35.36;25.46582;102021.2;;;;-76
2022/06/15 14:52:48;;;;;;;;;;;;;;;35.37;25.33594;102009.3;;;;-77
2022/06/15 14:57:42;;;;;;;5.2;1.3;;;;;;;;;;;;;-77
2022/06/15 14:57:52;;;;;;;;;;;;;;;35.32;25.68945;102008.4;;;;-74
2022/06/15 15:02:51;;;;;;;;;;;;;;;35.35;26.02344;102012.9;;;;-78
2022/06/15 15:12:49;;;;;;;;;;;;;;;34.89;26.30664;102005.3;;;;-77
2022/06/15 15:17:56;;;;;;;;;;;;;;;34.73;26.17871;102007.7;;;;-79
2022/06/15 15:22:55;;;;;;;;;;;;;;;34.56;26.57227;102009.8;;;;-75
2022/06/15 15:37:49;;;;;;;;;;;;;;;34.21;26.71875;101995.2;;;;-77
2022/06/15 15:42:49;;;;;;;;;;;;;;;34.14;26.60742;102000.1;;;;-75
2022/06/15 15:47:48;;;;;;;;;;;;;;;34.06;26.875;101994.7;;;;-76
2022/06/15 15:52:51;;;;;;;;;;;;;;;34;26.63477;101997;;;;-77
2022/06/15 15:57:49;;;;;;;;;;;;;;;33.93;26.98633;101990.6;;;;-76
2022/06/15 15:57:58;;;;;;;3.2;1.4;;;;;;;;;;;;;-76
2022/06/15 16:02:49;;;;;;;;;;;;;;;33.81;26.87207;101973.3;;;;-78
2022/06/15 16:07:49;;;;;;;;;;;;;;;33.72;27.21094;101973.5;;;;-77
2022/06/15 16:12:49;;;;;;;;;;;;;;;33.59;27.37988;101979.2;;;;-76
2022/06/15 16:17:49;;;;;;;;;;;;;;;33.45;27.45508;101987.3;;;;-78
2022/06/15 16:22:49;;;;;;;;;;;;;;;33.29;27.11426;101984.8;;;;-75
2022/06/15 16:27:49;;;;;;;;;;;;;;;33.11;27.29199;101974.5;;;;-77
2022/06/15 16:28:00;;;;;;;3.1;1.5;;;;;;;;;;;;;-77
2022/06/15 16:32:48;;;;;;;;;;;;;;;32.91;28.00098;101969.5;;;;-77
2022/06/15 16:37:49;;;;;;;;;;;;;;;32.72;28.33301;101970.9;;;;-77
2022/06/15 16:42:48;;;;;;;;;;;;;;;32.48;27.71582;101967.9;;;;-77
2022/06/15 16:47:48;;;;;;;;;;;;;;;32.26;28.18555;101970.8;;;;-78
2022/06/15 16:52:48;;;;;;;;;;;;;;;32.09;28.83496;101973.6;;;;-77
2022/06/15 16:57:48;;;;;;;;;;;;;;;31.85;29.16211;101977.2;;;;-76
2022/06/15 16:58:03;;;;;;;5.8;1.7;;;;;;;;;;;;;-75
2022/06/15 17:02:48;;;;;;;;;;;;;;;31.6;29.06348;101976.5;;;;-77
2022/06/15 17:07:49;;;;;;;;;;;;;;;31.34;28.98828;101980.6;;;;-76
2022/06/15 17:12:48;;;;;;;;;;;;;;;31.01;29.34375;101980.2;;;;-76
2022/06/15 17:17:48;;;;;;;;;;;;;;;30.67;29.9209;101990.7;;;;-77
2022/06/15 17:22:49;;;;;;;;;;;;;;;30.33;30.08691;102002.8;;;;-76
2022/06/15 17:27:48;;;;;;;;;;;;;;;29.99;30.52246;101996;;;;-77
2022/06/15 17:28:07;;;;;;;4;1.6;;;;;;;;;;;;;-75
2022/06/15 17:32:48;;;;;;;;;;;;;;;29.74;30.98633;102001.7;;;;-77
2022/06/15 17:37:48;;;;;;;;;;;;;;;29.54;31.01953;101995;;;;-77
2022/06/15 17:42:48;;;;;;;;;;;;;;;29.38;31.30078;102001.1;;;;-74
2022/06/15 17:47:48;;;;;;;;;;;;;;;29.14;31.22559;101993.8;;;;-77
2022/06/15 17:52:48;;;;;;;;;;;;;;;28.84;31.25293;102001.2;;;;-76
2022/06/15 17:57:48;;;;;;;;;;;;;;;28.52;31.2998;101995.6;;;;-77
2022/06/15 17:58:13;;;;;;;3.8;1.8;;;;;;;;;;;;;-77
2022/06/15 18:02:50;;;;;;;;;;;;;;;28.24;31.46777;101985.8;;;;-77
2022/06/15 18:07:48;;;;;;;;;;;;;;;28.02;31.91992;101990.1;;;;-77
2022/06/15 18:12:48;;;;;;;;;;;;;;;27.84;32.17578;101998.7;;;;-76
2022/06/15 18:17:51;;;;;;;;;;;;;;;27.59;31.9707;101989.7;;;;-76
2022/06/15 18:22:49;;;;;;;;;;;;;;;27.43;32.18066;101972.7;;;;-76
2022/06/15 18:27:48;;;;;;;;;;;;;;;27.26;31.72559;101976.5;;;;-76
2022/06/15 18:28:16;;;;;;;2.8;1.8;;;;;;;;;;;;;-76
2022/06/15 18:32:49;;;;;;;;;;;;;;;27.01;32.37207;101979.2;;;;-75
2022/06/15 18:37:49;;;;;;;;;;;;;;;26.8;32.43848;101992.2;;;;-74
2022/06/15 18:42:51;;;;;;;;;;;;;;;26.62;32.55469;101988.5;;;;-77
2022/06/15 18:47:48;;;;;;;;;;;;;;;26.38;32.87402;101982.7;;;;-75
2022/06/15 18:52:50;;;;;;;;;;;;;;;26.11;32.93457;101975.3;;;;-76
2022/06/15 18:57:49;;;;;;;;;;;;;;;25.86;32.97461;101974.3;;;;-76
2022/06/15 18:58:21;;;;;;;4.4;2;;;;;;;;;;;;;-75
2022/06/15 19:02:48;;;;;;;;;;;;;;;25.6;33.17676;101977.3;;;;-76
2022/06/15 19:07:49;;;;;;;;;;;;;;;25.31;33.56152;101997;;;;-77
2022/06/15 19:12:50;;;;;;;;;;;;;;;25;33.72363;101996.4;;;;-77
2022/06/15 19:17:48;;;;;;;;;;;;;;;24.65;34.10254;102007.6;;;;-75
2022/06/15 19:22:48;;;;;;;;;;;;;;;24.37;34.09375;102009.2;;;;-77
2022/06/15 19:27:48;;;;;;;;;;;;;;;24.07;34.40625;102010.7;;;;-77
2022/06/15 19:28:25;;;;;;;5.1;2.3;;;;;;;;;;;;;-76
2022/06/15 19:32:50;;;;;;;;;;;;;;;23.79;34.63965;102006.2;;;;-76
2022/06/15 19:37:49;;;;;;;;;;;;;;;23.5;34.92773;102008.1;;;;-75
2022/06/15 19:42:48;;;;;;;;;;;;;;;23.21;35.33301;102013;;;;-76
2022/06/15 19:47:48;;;;;;;;;;;;;;;22.93;35.72461;102019;;;;-76
2022/06/15 19:52:51;;;;;;;;;;;;;;;22.68;35.98242;102027.3;;;;-82
2022/06/15 19:57:50;;;;;;;;;;;;;;;22.44;36.43555;102026.1;;;;-85
2022/06/15 19:58:31;;;;;;;7;4.1;;;;;;;;;;;;;-82
2022/06/15 20:02:49;;;;;;;;;;;;;;;22.24;36.6377;102029;;;;-82
2022/06/15 20:07:49;;;;;;;;;;;;;;;22.04;36.91992;102015.5;;;;-82
2022/06/15 20:12:49;;;;;;;;;;;;;;;21.88;37.1709;102004.5;;;;-84
2022/06/15 20:17:54;;;;;;;;;;;;;;;21.7;37.5127;102015.7;;;;-82
2022/06/15 20:22:49;;;;;;;;;;;;;;;21.53;37.93555;102013.6;;;;-82
2022/06/15 20:27:52;;;;;;;;;;;;;;;21.38;38.04883;102029.3;;;;-83
2022/06/15 20:28:34;;;;;;;10.1;5.7;;;;;;;;;;;;;-83
2022/06/15 20:32:49;;;;;;;;;;;;;;;21.23;38.44922;102022;;;;-81
2022/06/15 20:37:53;;;;;;;;;;;;;;;21.11;38.72559;102047.5;;;;-82
2022/06/15 20:42:49;;;;;;;;;;;;;;;20.97;38.7832;102050.4;;;;-82
2022/06/15 20:47:51;;;;;;;;;;;;;;;20.87;39.06055;102053.4;;;;-82
2022/06/15 20:52:48;;;;;;;;;;;;;;;20.75;39.10742;102053;;;;-83
2022/06/15 20:57:51;;;;;;;;;;;;;;;20.64;39.50977;102058.8;;;;-81
2022/06/15 20:58:35;;;;;;;6.6;3.5;;;;;;;;;;;;;-81
2022/06/15 21:02:49;;;;;;;;;;;;;;;20.5;39.62402;102048;;;;-83
2022/06/15 21:07:49;;;;;;;;;;;;;;;20.36;39.95508;102037.5;;;;-80
2022/06/15 21:17:50;;;;;;;;;;;;;;;20.12;40.23047;102064;;;;-82
2022/06/15 21:22:54;;;;;;;;;;;;;;;20.01;40.44922;102058.9;;;;-82
2022/06/15 21:27:49;;;;;;;;;;;;;;;19.91;40.69238;102063.2;;;;-81
2022/06/15 21:28:38;;;;;;;5.2;2.8;;;;;;;;;;;;;-81
2022/06/15 21:32:49;;;;;;;;;;;;;;;19.81;40.72754;102074.7;;;;-81
2022/06/15 21:37:49;;;;;;;;;;;;;;;19.7;40.9248;102084.5;;;;-83
2022/06/15 21:42:49;;;;;;;;;;;;;;;19.6;40.92676;102083.2;;;;-82
2022/06/15 21:47:50;;;;;;;;;;;;;;;19.5;41.30566;102083;;;;-82
2022/06/15 21:52:49;;;;;;;;;;;;;;;19.42;41.32129;102080.8;;;;-80
2022/06/15 21:57:48;;;;;;;;;;;;;;;19.32;41.82617;102078.8;;;;-81
2022/06/15 21:58:40;;;;;;;3.7;2.3;;;;;;;;;;;;;-80
2022/06/15 22:02:49;;;;;;;;;;;;;;;19.23;41.69238;102084.6;;;;-81
2022/06/15 22:07:50;;;;;;;;;;;;;;;19.17;41.88086;102075.5;;;;-80
2022/06/15 22:12:48;;;;;;;;;;;;;;;19.09;41.98633;102072.5;;;;-82
2022/06/15 22:17:49;;;;;;;;;;;;;;;19;42.36621;102059.5;;;;-81
2022/06/15 22:22:48;;;;;;;;;;;;;;;18.94;42.65625;102057.6;;;;-81
2022/06/15 22:27:48;;;;;;;;;;;;;;;18.89;42.64063;102059.2;;;;-82
2022/06/15 22:28:43;;;;;;;4.2;2.2;;;;;;;;;;;;;-81
2022/06/15 22:32:48;;;;;;;;;;;;;;;18.82;42.81641;102052.4;;;;-82
2022/06/15 22:37:49;;;;;;;;;;;;;;;18.76;42.90137;102054;;;;-83
2022/06/15 22:42:49;;;;;;;;;;;;;;;18.71;43.14746;102048.5;;;;-84
2022/06/15 22:47:48;;;;;;;;;;;;;;;18.66;43.09766;102047;;;;-82
2022/06/15 22:52:48;;;;;;;;;;;;;;;18.62;43.11621;102058.4;;;;-83
2022/06/15 22:57:50;;;;;;;;;;;;;;;18.58;43.13477;102075.3;;;;-82
2022/06/15 22:58:46;;;;;;;4.1;2.1;;;;;;;;;;;;;-81
2022/06/15 23:02:48;;;;;;;;;;;;;;;18.5;43.21973;102068.4;;;;-83
2022/06/15 23:07:54;;;;;;;;;;;;;;;18.4;43.28809;102075.3;;;;-83
2022/06/15 23:12:50;;;;;;;;;;;;;;;18.36;43.42188;102083;;;;-81
2022/06/15 23:17:57;;;;;;;;;;;;;;;18.31;43.46289;102074.7;;;;-82
2022/06/15 23:22:49;;;;;;;;;;;;;;;18.23;43.54492;102076.7;;;;-82
2022/06/15 23:27:48;;;;;;;;;;;;;;;18.16;43.5498;102084.5;;;;-80
2022/06/15 23:28:51;;;;;;;3.4;2;;;;;;;;;;;;;-82
2022/06/15 23:32:49;;;;;;;;;;;;;;;18.08;43.62109;102077.1;;;;-80
2022/06/15 23:37:48;;;;;;;;;;;;;;;18.01;43.50098;102086.2;;;;-81
2022/06/15 23:42:48;;;;;;;;;;;;;;;17.95;43.6543;102088.9;;;;-81
2022/06/15 23:47:50;;;;;;;;;;;;;;;17.85;43.91699;102079.4;;;;-81
2022/06/15 23:52:49;;;;;;;;;;;;;;;17.77;44.13574;102071.3;;;;-82
2022/06/15 23:57:48;;;;;;;;;;;;;;;17.7;44.18652;102077.7;;;;-84
2022/06/15 23:58:50;;;;;;;4;2.1;;;;;;;;;;;;;-83
